Time;durP1;ratioP1;P1;durP2;ratioP2;P2;SDS_P1;SDS_P2;PMS_P1;PMS_P2;Temp;Humidity;BMP_temperature;BMP_pressure;BME280_temperature;BME280_humidity;BME280_pressure;Samples;Min_cycle;Max_cycle;Signal;HPM_P1;HPM_P2
2023/10/10 00:02:19;;;;;;;14.73;5.97;;;;;;;;;;4961577;28;20015;-79
2023/10/10 00:04:49;;;;;;;13.25;5.90;;;;;;;;;;4937443;28;20479;-78
2023/10/10 00:07:15;;;;;;;14.70;6.70;;;;;;;;;;4987939;28;20070;-78
2023/10/10 00:09:45;;;;;;;13.35;6.70;;;;;;;;;;4964445;28;20538;-79
2023/10/10 00:12:29;;;;;;;20.73;7.35;;;;;;;;;;4977788;28;20050;-78
2023/10/10 00:14:58;;;;;;;18.88;7.45;;;;;;;;;;4961413;28;20084;-79
2023/10/10 00:17:28;;;;;;;16.63;7.40;;;;;;;;;;4977459;28;20055;-78
2023/10/10 00:20:16;;;;;;;19.45;8.15;;;;;;;;;;4975051;28;20109;-78
2023/10/10 00:22:43;;;;;;;18.73;8.40;;;;;;;;;;4975273;28;20454;-79
2023/10/10 00:25:12;;;;;;;14.73;8.45;;;;;;;;;;4964610;28;20093;-78
2023/10/10 00:27:46;;;;;;;18.95;9.68;;;;;;;;;;4978216;28;20450;-80
2023/10/10 00:30:13;;;;;;;21.25;9.23;;;;;;;;;;4997521;28;20046;-78
2023/10/10 00:32:45;;;;;;;;;;;;;;;;;;4949345;28;20078;-81
2023/10/10 00:35:11;;;;;;;19.85;9.73;;;;;;;;;;4963815;28;19930;-78
2023/10/10 00:37:37;;;;;;;;;;;;;;;;;;4996409;28;20565;-78
2023/10/10 00:40:09;;;;;;;16.05;9.30;;;;;;;;;;4980283;28;19949;-80
2023/10/10 00:42:42;;;;;;;21.40;9.95;;;;;;;;;;4980990;28;20069;-78
2023/10/10 00:45:14;;;;;;;18.35;9.75;;;;;;;;;;4980749;28;20510;-79
2023/10/10 00:47:43;;;;;;;22.40;10.25;;;;;;;;;;4960911;28;20109;-82
2023/10/10 00:50:17;;;;;;;21.83;10.18;;;;;;;;;;4960985;28;20074;-79
2023/10/10 00:52:44;;;;;;;20.90;9.70;;;;;;;;;;4959254;28;20101;-81
2023/10/10 00:55:11;;;;;;;21.23;10.82;;;;;;;;;;4977199;28;20052;-79
2023/10/10 00:57:37;;;;;;;17.92;9.90;;;;;;;;;;4979149;28;20051;-78
2023/10/10 01:00:13;;;;;;;23.45;10.05;;;;;;;;;;4978552;28;20042;-78
2023/10/10 01:02:39;;;;;;;20.15;9.32;;;;;;;;;;4996617;28;20042;-80
2023/10/10 01:05:12;;;;;;;19.52;10.35;;;;;;;;;;4948408;28;20571;-78
2023/10/10 01:07:38;;;;;;;17.98;9.50;;;;;;;;;;4975609;28;20125;-78
2023/10/10 01:10:11;;;;;;;18.35;10.10;;;;;;;;;;4929411;28;20252;-78
2023/10/10 01:12:42;;;;;;;21.67;9.77;;;;;;;;;;4976049;28;20548;-79
2023/10/10 01:15:16;;;;;;;20.63;9.55;;;;;;;;;;4936850;28;20039;-79
2023/10/10 01:17:43;;;;;;;18.67;9.40;;;;;;;;;;4988160;28;20050;-79
2023/10/10 01:20:52;;;;;;;21.17;9.90;;;;;;;;;;4966628;28;20085;-78
2023/10/10 01:22:59;;;;;;;18.63;9.95;;;;;;;;;;4965737;28;20496;-78
2023/10/10 01:28:02;;;;;;;15.45;9.63;;;;;;;;;;4949496;28;20097;-78
2023/10/10 01:30:57;;;;;;;16.70;9.13;;;;;;;;;;4999132;28;20050;-78
2023/10/10 01:33:35;;;;;;;17.90;9.60;;;;;;;;;;4972847;28;20050;-78
2023/10/10 01:36:03;;;;;;;15.77;8.70;;;;;;;;;;4957042;28;20465;-79
2023/10/10 01:38:55;;;;;;;18.45;8.10;;;;;;;;;;4940823;28;20476;-78
2023/10/10 01:41:31;;;;;;;19.15;8.00;;;;;;;;;;4973226;28;20047;-78
2023/10/10 01:44:17;;;;;;;19.40;8.82;;;;;;;;;;4980008;28;20048;-78
2023/10/10 01:46:43;;;;;;;18.02;7.53;;;;;;;;;;4957412;28;20572;-78
2023/10/10 01:49:13;;;;;;;;;;;;;;;;;;4925933;28;20147;-78
2023/10/10 01:51:43;;;;;;;13.95;7.40;;;;;;;;;;4969877;28;20012;-78
2023/10/10 01:54:18;;;;;;;19.05;7.57;;;;;;;;;;4975091;28;20054;-78
2023/10/10 01:56:45;;;;;;;17.02;7.72;;;;;;;;;;4942384;28;20133;-78
2023/10/10 01:59:19;;;;;;;19.20;7.95;;;;;;;;;;4956909;28;20078;-78
2023/10/10 02:01:46;;;;;;;15.25;7.93;;;;;;;;;;4973513;28;20090;-78
2023/10/10 02:04:12;;;;;;;16.25;7.78;;;;;;;;;;4956446;28;20158;-79
2023/10/10 02:06:40;;;;;;;;;;;;;;;;;;4973153;28;20051;-78
2023/10/10 02:09:19;;;;;;;17.77;7.10;;;;;;;;;;4967001;28;20620;-78
2023/10/10 02:11:54;;;;;;;14.90;7.03;;;;;;;;;;4987707;28;20054;-78
2023/10/10 02:14:24;;;;;;;16.25;6.30;;;;;;;;;;4957188;28;20392;-80
2023/10/10 02:16:53;;;;;;;16.05;7.00;;;;;;;;;;4925793;28;20054;-79
2023/10/10 02:19:27;;;;;;;15.77;7.18;;;;;;;;;;4940510;28;20485;-78
2023/10/10 02:22:12;;;;;;;16.70;6.78;;;;;;;;;;4956211;28;20604;-81
2023/10/10 02:24:40;;;;;;;17.45;7.72;;;;;;;;;;4959321;28;20097;-79
2023/10/10 02:27:06;;;;;;;17.25;7.18;;;;;;;;;;4975707;28;20057;-78
2023/10/10 02:29:35;;;;;;;14.88;7.60;;;;;;;;;;4976032;28;20055;-78
2023/10/10 02:32:13;;;;;;;11.88;7.22;;;;;;;;;;4991619;28;20086;-78
2023/10/10 02:34:43;;;;;;;19.15;7.53;;;;;;;;;;4952823;28;20054;-79
2023/10/10 02:42:33;;;;;;;15.77;8.00;;;;;;;;;;4956593;28;20047;-78
2023/10/10 02:44:59;;;;;;;15.05;7.60;;;;;;;;;;4956553;28;20051;-79
2023/10/10 02:47:32;;;;;;;16.13;8.68;;;;;;;;;;4940557;28;20043;-78
2023/10/10 02:50:12;;;;;;;16.25;8.35;;;;;;;;;;4983977;28;20056;-81
2023/10/10 02:52:39;;;;;;;20.23;8.60;;;;;;;;;;4960138;28;20400;-79
2023/10/10 02:55:22;;;;;;;18.15;7.93;;;;;;;;;;4986012;28;20137;-78
2023/10/10 02:57:53;;;;;;;15.98;6.97;;;;;;;;;;4972804;28;20046;-78
2023/10/10 03:02:54;;;;;;;18.63;7.88;;;;;;;;;;4991727;28;20097;-78
2023/10/10 03:05:38;;;;;;;16.08;8.00;;;;;;;;;;4989540;28;20130;-78
2023/10/10 03:08:13;;;;;;;16.52;8.25;;;;;;;;;;4954894;28;20136;-79
2023/10/10 03:10:41;;;;;;;14.80;7.93;;;;;;;;;;4955975;28;20101;-78
2023/10/10 03:13:27;;;;;;;17.85;7.43;;;;;;;;;;4971911;28;20137;-78
2023/10/10 03:15:55;;;;;;;14.68;7.72;;;;;;;;;;4958420;28;20105;-78
2023/10/10 03:18:29;;;;;;;13.00;7.32;;;;;;;;;;4955613;28;20050;-78
2023/10/10 03:23:56;;;;;;;14.95;7.80;;;;;;;;;;4930327;28;20046;-79
2023/10/10 03:26:51;;;;;;;15.98;7.95;;;;;;;;;;4941276;28;20495;-78
2023/10/10 03:29:21;;;;;;;14.27;7.75;;;;;;;;;;4990240;28;20450;-78
2023/10/10 03:32:19;;;;;;;15.43;7.75;;;;;;;;;;4930807;28;20054;-78
2023/10/10 03:34:55;;;;;;;17.15;8.02;;;;;;;;;;4942221;28;20109;-79
2023/10/10 03:37:29;;;;;;;15.02;7.75;;;;;;;;;;4966208;28;20047;-78
2023/10/10 03:39:58;;;;;;;15.20;7.20;;;;;;;;;;4974832;28;20100;-78
2023/10/10 05:24:51;;;;;;;31.63;16.50;;;;;;;;;;4974253;28;20082;-78
2023/10/10 05:27:29;;;;;;;33.35;17.25;;;;;;;;;;4974139;28;20069;-78
2023/10/10 05:29:56;;;;;;;30.48;16.27;;;;;;;;;;4974165;28;20141;-78
2023/10/10 05:32:22;;;;;;;33.78;17.55;;;;;;;;;;4957498;28;20062;-78
2023/10/10 05:34:52;;;;;;;34.13;17.25;;;;;;;;;;4958108;28;20507;-79
2023/10/10 05:37:18;;;;;;;40.22;18.30;;;;;;;;;;4975618;28;20046;-80
2023/10/10 05:39:46;;;;;;;35.15;18.52;;;;;;;;;;4969898;28;20096;-78
2023/10/10 05:42:20;;;;;;;34.63;18.15;;;;;;;;;;4992530;28;20051;-78
2023/10/10 05:44:49;;;;;;;40.63;19.20;;;;;;;;;;4958031;28;20090;-78
2023/10/10 05:47:16;;;;;;;38.83;19.02;;;;;;;;;;4973618;28;20084;-81
2023/10/10 05:49:42;;;;;;;38.22;18.83;;;;;;;;;;4972661;28;20046;-78
2023/10/10 05:52:08;;;;;;;;;;;;;;;;;;4976444;28;20074;-78
2023/10/10 05:54:35;;;;;;;40.97;18.48;;;;;;;;;;4980436;28;19925;-78
2023/10/10 05:57:02;;;;;;;35.88;19.17;;;;;;;;;;4958027;28;20050;-78
2023/10/10 05:59:28;;;;;;;38.20;18.65;;;;;;;;;;4991389;28;20069;-77
2023/10/10 06:01:55;;;;;;;42.30;19.63;;;;;;;;;;4989322;28;20089;-76
2023/10/10 06:04:21;;;;;;;46.25;21.48;;;;;;;;;;4956745;28;20055;-77
2023/10/10 06:06:47;;;;;;;39.55;19.67;;;;;;;;;;4963187;28;20073;-69
2023/10/10 06:09:18;;;;;;;;;;;;;;;;;;4976770;28;20054;-73
2023/10/10 06:11:47;;;;;;;31.85;15.00;;;;;;;;;;4976155;28;19925;-72
2023/10/10 06:14:13;;;;;;;35.33;17.88;;;;;;;;;;4976656;28;20055;-71
2023/10/10 06:16:40;;;;;;;;;;;;;;;;;;4976915;28;20053;-76
2023/10/10 06:19:06;;;;;;;41.33;19.67;;;;;;;;;;4977190;28;20271;-78
2023/10/10 06:21:33;;;;;;;36.95;19.85;;;;;;;;;;4969564;28;20145;-76
2023/10/10 06:24:00;;;;;;;41.78;19.98;;;;;;;;;;4968663;28;20049;-77
2023/10/10 06:26:27;;;;;;;40.08;19.00;;;;;;;;;;4983508;28;20555;-77
2023/10/10 06:28:53;;;;;;;38.97;19.90;;;;;;;;;;4960146;28;20141;-77
2023/10/10 06:31:19;;;;;;;;;;;;;;;;;;4953780;29;20083;-77
2023/10/10 06:33:52;;;;;;;41.15;20.60;;;;;;;;;;4952932;29;19922;-78
2023/10/10 06:41:50;;;;;;;43.05;23.05;;;;;;;;;;4929747;29;20051;-77
2023/10/10 06:47:08;;;;;;;43.90;23.52;;;;;;;;;;4934748;29;20430;-76
2023/10/10 06:49:44;;;;;;;43.72;23.20;;;;;;;;;;4933919;29;20059;-76
2023/10/10 06:52:19;;;;;;;44.45;23.25;;;;;;;;;;4934075;29;20453;-78
2023/10/10 06:54:54;;;;;;;42.53;22.65;;;;;;;;;;4933876;29;20051;-76
2023/10/10 06:57:21;;;;;;;44.60;23.67;;;;;;;;;;4953283;29;20126;-77
2023/10/10 06:59:48;;;;;;;40.13;21.67;;;;;;;;;;4953055;29;20094;-76
2023/10/10 07:02:20;;;;;;;38.53;20.50;;;;;;;;;;4952691;29;20057;-77
2023/10/10 07:04:52;;;;;;;39.17;20.80;;;;;;;;;;4939793;28;20110;-77
2023/10/10 07:07:20;;;;;;;41.15;21.20;;;;;;;;;;4919679;29;20051;-77
2023/10/10 07:09:46;;;;;;;37.78;20.05;;;;;;;;;;4950356;29;20082;-77
2023/10/10 07:12:14;;;;;;;;;;;;;;;;;;4934556;29;20393;-76
2023/10/10 07:14:43;;;;;;;34.13;18.58;;;;;;;;;;4934684;29;19923;-76
2023/10/10 07:17:12;;;;;;;38.05;19.65;;;;;;;;;;4952501;29;20101;-77
2023/10/10 07:21:04;;;;;;;42.08;20.67;;;;;;;;;;4952298;29;20082;-76
2023/10/10 07:22:41;;;;;;;39.20;19.60;;;;;;;;;;4951036;29;20051;-77
2023/10/10 07:25:18;;;;;;;42.63;20.40;;;;;;;;;;4948971;29;20082;-76
2023/10/10 07:27:44;;;;;;;;;;;;;;;;;;4938835;29;20062;-76
2023/10/10 07:30:16;;;;;;;45.30;23.98;;;;;;;;;;4935540;29;19930;-77
2023/10/10 07:32:50;;;;;;;47.13;23.95;;;;;;;;;;4952165;29;20154;-76
2023/10/10 07:35:16;;;;;;;50.28;25.30;;;;;;;;;;4936559;29;20138;-70
2023/10/10 07:37:45;;;;;;;49.20;26.83;;;;;;;;;;4937328;29;20095;-70
2023/10/10 07:40:28;;;;;;;54.10;28.55;;;;;;;;;;4933277;29;20098;-76
2023/10/10 07:43:02;;;;;;;60.58;28.95;;;;;;;;;;4932561;29;20520;-79
2023/10/10 07:45:43;;;;;;;62.97;30.90;;;;;;;;;;4930862;29;20091;-76
2023/10/10 07:50:37;;;;;;;68.80;34.63;;;;;;;;;;4947697;28;20051;-76
2023/10/10 07:53:06;;;;;;;74.93;36.28;;;;;;;;;;4942966;28;20132;-77
2023/10/10 07:55:34;;;;;;;72.85;35.20;;;;;;;;;;4953375;28;20051;-79
2023/10/10 07:58:00;;;;;;;72.45;36.35;;;;;;;;;;4947703;28;20489;-76
2023/10/10 08:00:35;;;;;;;;;;;;;;;;;;4934326;28;20050;-76
2023/10/10 08:03:02;;;;;;;76.28;35.90;;;;;;;;;;4951811;28;19922;-77
2023/10/10 08:05:29;;;;;;;72.65;36.72;;;;;;;;;;4961989;28;20191;-77
2023/10/10 08:08:05;;;;;;;78.15;38.25;;;;;;;;;;4937417;28;20078;-76
2023/10/10 08:10:38;;;;;;;103.78;43.20;;;;;;;;;;4948611;28;20050;-77
2023/10/10 08:13:10;;;;;;;79.80;38.28;;;;;;;;;;4949220;28;20405;-76
2023/10/10 08:16:04;;;;;;;81.20;37.47;;;;;;;;;;4964940;28;20560;-78
2023/10/10 08:21:08;;;;;;;87.72;41.15;;;;;;;;;;4947650;28;20075;-76
2023/10/10 08:23:36;;;;;;;94.43;42.08;;;;;;;;;;4953033;28;20062;-79
2023/10/10 08:26:02;;;;;;;91.60;43.22;;;;;;;;;;4916423;29;20090;-79
2023/10/10 08:28:29;;;;;;;93.97;43.35;;;;;;;;;;4936750;28;20066;-79
2023/10/10 08:30:55;;;;;;;91.18;41.30;;;;;;;;;;4955154;28;20059;-78
2023/10/10 08:33:21;;;;;;;;;;;;;;;;;;4960412;28;20508;-78
2023/10/10 08:35:47;;;;;;;87.20;40.88;;;;;;;;;;4954397;29;19929;-78
2023/10/10 08:38:14;;;;;;;85.55;41.03;;;;;;;;;;4954431;28;20409;-79
2023/10/10 08:40:43;;;;;;;90.57;41.85;;;;;;;;;;4954318;28;20051;-79
2023/10/10 08:43:09;;;;;;;96.05;41.88;;;;;;;;;;4939746;29;20054;-79
2023/10/10 08:45:43;;;;;;;;;;;;;;;;;;4924089;29;20511;-79
2023/10/10 08:48:15;;;;;;;93.43;40.60;;;;;;;;;;4955497;29;19978;-79
2023/10/10 08:50:42;;;;;;;89.85;38.83;;;;;;;;;;4955004;28;20126;-78
2023/10/10 08:53:12;;;;;;;92.20;41.05;;;;;;;;;;4954225;29;20047;-78
2023/10/10 08:55:40;;;;;;;82.22;40.72;;;;;;;;;;4953377;28;20055;-82
2023/10/10 08:58:07;;;;;;;94.53;41.70;;;;;;;;;;4955207;29;20058;-78
2023/10/10 09:00:33;;;;;;;83.18;41.03;;;;;;;;;;4961317;28;20043;-79
2023/10/10 09:03:00;;;;;;;87.20;40.22;;;;;;;;;;4961333;28;20039;-78
2023/10/10 09:05:29;;;;;;;83.90;38.92;;;;;;;;;;4954509;28;20047;-79
2023/10/10 09:08:06;;;;;;;94.38;41.47;;;;;;;;;;4953314;28;20516;-80
2023/10/10 09:10:39;;;;;;;84.05;39.47;;;;;;;;;;4954061;28;20062;-79
2023/10/10 09:13:07;;;;;;;78.05;41.00;;;;;;;;;;4954770;28;20043;-79
2023/10/10 09:15:36;;;;;;;77.45;39.70;;;;;;;;;;4954969;28;20492;-79
2023/10/10 09:18:12;;;;;;;70.05;38.25;;;;;;;;;;4954332;29;20058;-77
2023/10/10 09:20:45;;;;;;;71.25;40.05;;;;;;;;;;4954441;28;20043;-78
2023/10/10 09:23:25;;;;;;;70.90;38.47;;;;;;;;;;4953566;29;20101;-78
2023/10/10 09:25:57;;;;;;;74.22;38.58;;;;;;;;;;4946613;28;20493;-77
2023/10/10 09:28:30;;;;;;;69.72;38.25;;;;;;;;;;4958699;28;20063;-78
2023/10/10 09:31:03;;;;;;;67.97;35.72;;;;;;;;;;4958019;28;20078;-76
2023/10/10 09:33:33;;;;;;;66.30;34.80;;;;;;;;;;4954880;29;20496;-76
2023/10/10 09:36:15;;;;;;;68.03;36.08;;;;;;;;;;4954030;29;20070;-78
2023/10/10 09:38:54;;;;;;;69.10;35.13;;;;;;;;;;4955974;28;20099;-81
2023/10/10 09:50:00;;;;;;;60.30;33.05;;;;;;;;;;4972102;28;20058;-78
2023/10/10 09:58:00;;;;;;;55.30;30.80;;;;;;;;;;4973304;28;20568;-79
2023/10/10 10:09:08;;;;;;;55.30;32.95;;;;;;;;;;4937783;28;20053;-79
2023/10/10 10:11:35;;;;;;;;;;;;;;;;;;4968977;28;20460;-77
2023/10/10 10:14:11;;;;;;;;;;;;;;;;;;4965187;28;20037;-77
2023/10/10 10:17:12;;;;;;;52.30;30.23;;;;;;;;;;4964625;28;19922;-77
2023/10/10 10:19:45;;;;;;;51.15;30.00;;;;;;;;;;4967616;28;20055;-77
2023/10/10 10:22:21;;;;;;;54.80;30.77;;;;;;;;;;4962319;28;20186;-78
2023/10/10 10:24:47;;;;;;;59.17;31.40;;;;;;;;;;4964337;28;20094;-80
2023/10/10 10:30:26;;;;;;;53.25;30.70;;;;;;;;;;4969389;28;20053;-77
2023/10/10 10:32:55;;;;;;;52.80;30.05;;;;;;;;;;4955957;28;20499;-77
2023/10/10 10:35:44;;;;;;;55.60;29.70;;;;;;;;;;4973251;28;20044;-78
2023/10/10 10:38:10;;;;;;;46.35;27.80;;;;;;;;;;4962095;28;20073;-78
2023/10/10 10:43:05;;;;;;;50.92;28.90;;;;;;;;;;4971860;28;20055;-77
2023/10/10 10:45:40;;;;;;;53.60;28.95;;;;;;;;;;4956277;28;20400;-77
2023/10/10 10:48:07;;;;;;;52.20;28.00;;;;;;;;;;4971599;28;20476;-78
2023/10/10 10:50:45;;;;;;;47.72;27.52;;;;;;;;;;4968354;28;20078;-77
2023/10/10 10:53:30;;;;;;;46.80;26.95;;;;;;;;;;4970477;28;20055;-79
2023/10/10 10:59:23;;;;;;;45.78;27.10;;;;;;;;;;4963673;28;20476;-77
2023/10/10 11:01:34;;;;;;;48.45;26.40;;;;;;;;;;4965706;28;20097;-77
2023/10/10 11:04:05;;;;;;;48.65;27.63;;;;;;;;;;4962213;28;20050;-77
2023/10/10 11:06:31;;;;;;;43.33;25.85;;;;;;;;;;4971476;28;20059;-77
2023/10/10 11:09:23;;;;;;;45.03;27.27;;;;;;;;;;4954635;28;20138;-78
2023/10/10 11:11:43;;;;;;;41.70;25.57;;;;;;;;;;4971737;28;20124;-77
2023/10/10 11:14:18;;;;;;;39.65;24.58;;;;;;;;;;4975369;28;20137;-78
2023/10/10 11:16:45;;;;;;;42.08;24.65;;;;;;;;;;4959436;28;20523;-78
2023/10/10 11:19:19;;;;;;;40.60;24.38;;;;;;;;;;4978401;28;20476;-79
2023/10/10 11:21:49;;;;;;;42.85;25.35;;;;;;;;;;4962923;28;20055;-79
2023/10/10 11:24:15;;;;;;;43.83;25.23;;;;;;;;;;4954638;28;20047;-76
2023/10/10 11:26:44;;;;;;;39.33;24.65;;;;;;;;;;4967350;28;20128;-82
2023/10/10 11:29:27;;;;;;;40.40;24.42;;;;;;;;;;4948132;29;20070;-77
2023/10/10 11:32:11;;;;;;;40.83;24.38;;;;;;;;;;4940078;28;20047;-77
2023/10/10 11:34:44;;;;;;;36.22;22.25;;;;;;;;;;4941080;29;20055;-77
2023/10/10 11:37:20;;;;;;;41.95;22.90;;;;;;;;;;4940184;28;20492;-77
2023/10/10 11:40:19;;;;;;;39.28;23.70;;;;;;;;;;4952320;28;20066;-78
2023/10/10 11:42:47;;;;;;;38.97;23.50;;;;;;;;;;4952352;29;20479;-77
2023/10/10 11:45:19;;;;;;;35.92;22.38;;;;;;;;;;4951844;28;20055;-78
2023/10/10 11:47:47;;;;;;;38.03;23.33;;;;;;;;;;4952186;28;20117;-77
2023/10/10 11:50:15;;;;;;;40.35;22.83;;;;;;;;;;4943093;29;20415;-78
2023/10/10 11:53:01;;;;;;;36.40;22.42;;;;;;;;;;4961697;28;20134;-78
2023/10/10 11:55:28;;;;;;;37.83;21.80;;;;;;;;;;4952026;29;20559;-78
2023/10/10 11:58:16;;;;;;;32.70;21.83;;;;;;;;;;4953747;28;20050;-78
2023/10/10 12:00:43;;;;;;;36.05;21.58;;;;;;;;;;4952466;28;20075;-78
2023/10/10 12:03:13;;;;;;;35.83;21.77;;;;;;;;;;4951571;29;20039;-78
2023/10/10 12:05:49;;;;;;;36.33;20.80;;;;;;;;;;4951473;28;20560;-78
2023/10/10 12:08:16;;;;;;;32.58;19.50;;;;;;;;;;4950618;28;20051;-78
2023/10/10 12:10:52;;;;;;;32.72;19.95;;;;;;;;;;4959537;28;20043;-78
2023/10/10 12:13:52;;;;;;;31.85;19.13;;;;;;;;;;4938583;29;20048;-78
2023/10/10 12:16:11;;;;;;;32.85;19.08;;;;;;;;;;4937189;28;20102;-78
2023/10/10 12:18:44;;;;;;;29.23;18.30;;;;;;;;;;4967896;28;20079;-79
2023/10/10 12:21:13;;;;;;;31.10;16.25;;;;;;;;;;4951074;28;20394;-79
2023/10/10 12:23:39;;;;;;;33.08;16.85;;;;;;;;;;4951349;28;20106;-79
2023/10/10 12:26:16;;;;;;;;;;;;;;;;;;4939820;29;20421;-78
2023/10/10 12:28:44;;;;;;;24.75;15.35;;;;;;;;;;4949248;28;19930;-78
2023/10/10 12:31:15;;;;;;;31.17;17.00;;;;;;;;;;4935502;29;20397;-78
2023/10/10 12:33:45;;;;;;;30.95;16.08;;;;;;;;;;4952275;28;20455;-78
2023/10/10 12:36:12;;;;;;;31.15;16.35;;;;;;;;;;4950815;29;20500;-78
2023/10/10 12:38:38;;;;;;;27.50;15.27;;;;;;;;;;4951533;28;20381;-78
2023/10/10 12:41:11;;;;;;;31.27;16.63;;;;;;;;;;4942531;29;20098;-78
2023/10/10 12:43:37;;;;;;;33.53;16.65;;;;;;;;;;4961831;28;20043;-78
2023/10/10 12:46:06;;;;;;;31.60;16.17;;;;;;;;;;4951806;28;20404;-78
2023/10/10 12:48:39;;;;;;;28.00;15.20;;;;;;;;;;4951925;29;20051;-78
2023/10/10 12:51:09;;;;;;;42.05;16.73;;;;;;;;;;4951638;28;20051;-78
2023/10/10 12:53:39;;;;;;;25.77;15.85;;;;;;;;;;4950190;28;20086;-78
2023/10/10 12:56:05;;;;;;;30.50;14.93;;;;;;;;;;4949524;28;20078;-79
2023/10/10 12:58:32;;;;;;;27.45;14.45;;;;;;;;;;4950872;29;20047;-79
2023/10/10 13:00:59;;;;;;;27.13;16.33;;;;;;;;;;4951699;28;20044;-77
2023/10/10 13:03:28;;;;;;;27.40;16.02;;;;;;;;;;4952449;28;20051;-79
2023/10/10 13:05:58;;;;;;;26.80;16.40;;;;;;;;;;4955330;29;20481;-79
2023/10/10 13:11:20;;;;;;;25.75;14.63;;;;;;;;;;4937028;28;20059;-78
2023/10/10 13:13:51;;;;;;;30.27;16.45;;;;;;;;;;4944127;29;20407;-77
2023/10/10 13:19:06;;;;;;;29.48;17.15;;;;;;;;;;4952366;28;20043;-80
2023/10/10 13:21:36;;;;;;;30.70;15.23;;;;;;;;;;4951381;28;20047;-78
2023/10/10 13:24:03;;;;;;;25.17;15.23;;;;;;;;;;4949887;28;20044;-81
2023/10/10 13:26:29;;;;;;;26.92;16.30;;;;;;;;;;4968720;28;20047;-80
2023/10/10 13:28:56;;;;;;;25.77;14.63;;;;;;;;;;4978060;28;20066;-82
2023/10/10 13:31:27;;;;;;;28.75;15.45;;;;;;;;;;4986959;28;20082;-84
2023/10/10 13:33:53;;;;;;;36.08;15.60;;;;;;;;;;4967609;28;20515;-83
2023/10/10 13:36:19;;;;;;;27.77;15.07;;;;;;;;;;4964479;28;20050;-84
2023/10/10 13:38:50;;;;;;;30.65;15.45;;;;;;;;;;4956699;28;20134;-85
2023/10/10 13:41:23;;;;;;;26.55;14.85;;;;;;;;;;4956041;28;20129;-80
2023/10/10 13:43:50;;;;;;;26.08;14.25;;;;;;;;;;4967607;28;20074;-85
2023/10/10 13:46:20;;;;;;;25.60;14.65;;;;;;;;;;4969597;28;20043;-77
2023/10/10 13:48:47;;;;;;;24.27;14.32;;;;;;;;;;4971786;28;20054;-74
2023/10/10 13:51:16;;;;;;;29.95;14.98;;;;;;;;;;4972407;28;20089;-84
2023/10/10 13:53:44;;;;;;;27.10;14.23;;;;;;;;;;4973048;28;20488;-75
2023/10/10 13:56:17;;;;;;;23.08;13.20;;;;;;;;;;4972069;28;20078;-85
2023/10/10 13:58:47;;;;;;;23.75;13.75;;;;;;;;;;4968974;28;20138;-84
2023/10/10 14:01:14;;;;;;;26.35;13.88;;;;;;;;;;4973375;28;20129;-84
2023/10/10 14:03:56;;;;;;;22.10;12.43;;;;;;;;;;4972879;28;20105;-83
2023/10/10 14:06:26;;;;;;;22.30;12.55;;;;;;;;;;4956971;28;20509;-83
2023/10/10 14:08:53;;;;;;;18.40;11.77;;;;;;;;;;4956832;28;20047;-83
2023/10/10 14:11:22;;;;;;;22.58;11.30;;;;;;;;;;4972726;28;20097;-83
2023/10/10 14:13:49;;;;;;;23.88;12.52;;;;;;;;;;4972860;28;20042;-83
2023/10/10 14:16:16;;;;;;;23.45;12.30;;;;;;;;;;4973231;28;20047;-87
2023/10/10 14:18:42;;;;;;;22.60;11.25;;;;;;;;;;4953467;29;20047;-83
2023/10/10 14:21:09;;;;;;;22.42;12.00;;;;;;;;;;4963338;28;20051;-83
2023/10/10 14:23:35;;;;;;;22.13;11.48;;;;;;;;;;4961641;28;20062;-83
2023/10/10 14:26:18;;;;;;;22.70;12.13;;;;;;;;;;4990265;28;20054;-82
2023/10/10 14:28:51;;;;;;;25.70;12.13;;;;;;;;;;4966230;28;20056;-85
2023/10/10 14:31:18;;;;;;;22.85;12.23;;;;;;;;;;4942675;29;20054;-85
2023/10/10 14:33:44;;;;;;;22.30;11.90;;;;;;;;;;4961900;28;20078;-80
2023/10/10 14:36:11;;;;;;;22.65;12.15;;;;;;;;;;4971758;28;20050;-77
2023/10/10 14:38:46;;;;;;;24.23;11.52;;;;;;;;;;4955403;28;20259;-72
2023/10/10 14:41:23;;;;;;;21.88;11.68;;;;;;;;;;4947971;28;20050;-76
2023/10/10 14:43:50;;;;;;;25.67;11.40;;;;;;;;;;4954647;28;20039;-72
2023/10/10 14:46:22;;;;;;;18.55;11.48;;;;;;;;;;4966213;28;20074;-72
2023/10/10 14:49:00;;;;;;;21.15;11.52;;;;;;;;;;4954298;28;20515;-72
2023/10/10 14:51:33;;;;;;;22.25;11.38;;;;;;;;;;4953495;28;20113;-79
2023/10/10 14:54:05;;;;;;;22.33;10.90;;;;;;;;;;4968721;28;20395;-76
2023/10/10 14:56:35;;;;;;;19.13;10.70;;;;;;;;;;4940737;29;20058;-75
2023/10/10 14:59:03;;;;;;;23.40;11.70;;;;;;;;;;4952879;28;20047;-78
2023/10/10 15:01:34;;;;;;;22.25;11.43;;;;;;;;;;4953783;28;20197;-77
2023/10/10 15:04:02;;;;;;;26.75;10.98;;;;;;;;;;4951600;28;20066;-73
2023/10/10 15:06:29;;;;;;;19.35;10.90;;;;;;;;;;4938303;29;20138;-78
2023/10/10 15:08:55;;;;;;;22.30;10.57;;;;;;;;;;4930102;29;20087;-78
2023/10/10 15:11:21;;;;;;;18.40;11.30;;;;;;;;;;4959159;28;20102;-79
2023/10/10 15:13:49;;;;;;;19.70;11.27;;;;;;;;;;4948845;28;20043;-77
2023/10/10 15:16:15;;;;;;;22.73;11.43;;;;;;;;;;4943096;29;20062;-80
2023/10/10 15:18:41;;;;;;;21.30;11.30;;;;;;;;;;4966061;28;20040;-79
2023/10/10 15:21:07;;;;;;;22.38;11.27;;;;;;;;;;4968388;28;20436;-79
2023/10/10 15:23:34;;;;;;;25.95;12.18;;;;;;;;;;4910109;29;20051;-76
2023/10/10 15:26:05;;;;;;;21.60;12.05;;;;;;;;;;4963507;28;20401;-78
2023/10/10 15:28:31;;;;;;;22.90;11.35;;;;;;;;;;4921644;29;20059;-79
2023/10/10 15:30:57;;;;;;;20.50;11.35;;;;;;;;;;4953512;28;20070;-76
2023/10/10 15:33:25;;;;;;;23.02;11.43;;;;;;;;;;4959251;28;20047;-79
2023/10/10 15:35:52;;;;;;;19.40;11.32;;;;;;;;;;4969369;28;20173;-75
2023/10/10 15:38:18;;;;;;;20.92;11.25;;;;;;;;;;4970766;28;20050;-76
2023/10/10 15:40:45;;;;;;;21.50;11.90;;;;;;;;;;4970788;28;20066;-79
2023/10/10 15:43:14;;;;;;;28.95;12.27;;;;;;;;;;4968991;28;20485;-79
2023/10/10 15:45:43;;;;;;;24.70;12.15;;;;;;;;;;4957658;28;20051;-77
2023/10/10 15:48:21;;;;;;;23.88;12.55;;;;;;;;;;4972223;28;20053;-77
2023/10/10 15:50:57;;;;;;;22.33;12.15;;;;;;;;;;4970938;28;20046;-78
2023/10/10 15:53:27;;;;;;;21.23;11.98;;;;;;;;;;4970475;28;20105;-81
2023/10/10 15:59:00;;;;;;;24.42;12.02;;;;;;;;;;4934738;29;20133;-78
2023/10/10 16:01:27;;;;;;;23.05;12.00;;;;;;;;;;4934138;29;20051;-77
2023/10/10 16:04:00;;;;;;;21.85;12.43;;;;;;;;;;4950520;28;20047;-75
2023/10/10 16:06:30;;;;;;;27.80;13.07;;;;;;;;;;4964771;28;20127;-79
2023/10/10 16:08:58;;;;;;;24.65;12.65;;;;;;;;;;4957709;28;20133;-78
2023/10/10 16:11:31;;;;;;;23.27;12.00;;;;;;;;;;4968902;28;20133;-78
2023/10/10 16:13:57;;;;;;;24.77;13.07;;;;;;;;;;4966803;28;20051;-78
2023/10/10 16:16:23;;;;;;;27.48;12.35;;;;;;;;;;4955549;28;20130;-78
2023/10/10 16:18:49;;;;;;;25.23;13.27;;;;;;;;;;4968516;28;20129;-79
2023/10/10 16:21:15;;;;;;;21.73;12.18;;;;;;;;;;4971900;28;20134;-78
2023/10/10 16:23:45;;;;;;;25.23;12.35;;;;;;;;;;4955107;28;20050;-77
2023/10/10 16:26:12;;;;;;;23.10;12.65;;;;;;;;;;4953372;28;20054;-78
2023/10/10 16:28:38;;;;;;;23.83;12.07;;;;;;;;;;4956009;28;20086;-78
2023/10/10 16:31:07;;;;;;;26.48;13.02;;;;;;;;;;4985532;28;20590;-78
2023/10/10 16:33:37;;;;;;;23.88;12.35;;;;;;;;;;4971659;28;20053;-78
2023/10/10 16:36:17;;;;;;;22.58;12.77;;;;;;;;;;4951573;28;20054;-78
2023/10/10 16:38:54;;;;;;;23.80;12.05;;;;;;;;;;4992746;28;20050;-79
2023/10/10 16:41:22;;;;;;;19.58;11.45;;;;;;;;;;4969566;28;20136;-78
2023/10/10 16:43:49;;;;;;;22.70;12.48;;;;;;;;;;4990377;28;20046;-78
2023/10/10 16:46:15;;;;;;;23.13;12.63;;;;;;;;;;4973339;28;20049;-78
2023/10/10 16:48:46;;;;;;;27.55;13.20;;;;;;;;;;4959833;28;20065;-79
2023/10/10 16:51:13;;;;;;;27.27;12.00;;;;;;;;;;4991587;28;20053;-79
2023/10/10 16:53:43;;;;;;;26.15;12.65;;;;;;;;;;4979093;28;20093;-80
2023/10/10 16:56:13;;;;;;;29.10;13.05;;;;;;;;;;4965569;28;20093;-78
2023/10/10 16:58:40;;;;;;;24.60;13.15;;;;;;;;;;4970543;28;20054;-77
2023/10/10 17:01:13;;;;;;;26.30;13.00;;;;;;;;;;4987456;28;20037;-79
2023/10/10 17:03:43;;;;;;;28.00;13.20;;;;;;;;;;4948895;28;20121;-77
2023/10/10 17:06:10;;;;;;;26.15;12.75;;;;;;;;;;4986341;28;20071;-79
2023/10/10 17:08:36;;;;;;;23.25;12.35;;;;;;;;;;4967647;28;20094;-79
2023/10/10 17:11:09;;;;;;;24.08;12.50;;;;;;;;;;4982862;28;20045;-77
2023/10/10 17:13:38;;;;;;;26.20;12.52;;;;;;;;;;4978991;28;20334;-78
2023/10/10 17:16:15;;;;;;;23.58;12.68;;;;;;;;;;4973937;28;20042;-78
2023/10/10 17:18:42;;;;;;;25.33;10.75;;;;;;;;;;4982968;28;20403;-78
2023/10/10 17:21:18;;;;;;;22.92;11.85;;;;;;;;;;4977859;28;20088;-77
2023/10/10 17:23:46;;;;;;;28.77;12.85;;;;;;;;;;4992762;28;20384;-78
2023/10/10 17:26:26;;;;;;;24.90;12.38;;;;;;;;;;4990771;28;20049;-76
2023/10/10 17:28:53;;;;;;;21.50;11.27;;;;;;;;;;4961737;28;20066;-78
2023/10/10 17:31:22;;;;;;;19.55;11.40;;;;;;;;;;4942209;28;20481;-78
2023/10/10 17:33:50;;;;;;;23.02;11.52;;;;;;;;;;4953700;28;20055;-78
2023/10/10 17:36:16;;;;;;;20.35;11.13;;;;;;;;;;4933393;28;20086;-78
2023/10/10 17:38:43;;;;;;;23.08;11.82;;;;;;;;;;4969307;28;20054;-79